KSRQ/SRQ METAR and TAF weather

Enter ICAO airport designator
Station Type Date Time Source
KSRQ METAR 2022/05/26 04:53 UTC NOAA

KSRQ 260453Z AUTO 13010KT 10SM CLR 26/22 A3007 RMK AO2 SLP181 T02560217 403440228


Station Type Date Time Source
KSRQ Decoded METAR 2022/05/26 04:53 UTC NOAA

SARASOTA/BRADENTON INTERNATIONAL ., FL, United States (KSRQ) 27-24N 082-33W 18M
May 26, 2022 - 12:53 AM EDT / 2022.05.26 0453 UTC
Wind: from the SE (130 degrees) at 12 MPH (10 KT):0
Visibility: 10 mile(s):0
Sky conditions: clear
Temperature: 78.1 F (25.6 C)
Dew Point: 71.1 F (21.7 C)
Relative Humidity: 79%
Pressure (altimeter): 30.07 in. Hg (1018 hPa)
ob: KSRQ 260453Z AUTO 13010KT 10SM CLR 26/22 A3007 RMK AO2 SLP181 T02560217 403440228
cycle: 5

Station Type Date Time Source
KSRQ TAF 2022/05/26 00:15 UTC NOAA

TAF
AMD KSRQ 260012Z 2600/2624 25006KT P6SM VCTS BKN040CB BKN150
FM260200 11007KT P6SM BKN200
FM261500 15012KT P6SM SCT250
FM261700 18010G15KT P6SM SCT250
FM262100 23012KT P6SM SCT250

Example: see airport list